sensor_id;sensor_type;location;lat;lon;timestamp;P1;durP1;ratioP1;P2;durP2;ratioP2
11191;SDS011;5652;48.406;10.820;2023-04-22T00:02:19;2.97;;;1.60;;
11191;SDS011;5652;48.406;10.820;2023-04-22T00:04:47;2.17;;;1.60;;
11191;SDS011;5652;48.406;10.820;2023-04-22T00:07:15;2.03;;;1.63;;
11191;SDS011;5652;48.406;10.820;2023-04-22T00:09:43;2.60;;;1.67;;
11191;SDS011;5652;48.406;10.820;2023-04-22T00:12:10;2.75;;;1.75;;
11191;SDS011;5652;48.406;10.820;2023-04-22T00:14:39;3.60;;;1.70;;
11191;SDS011;5652;48.406;10.820;2023-04-22T00:17:06;2.43;;;1.60;;
11191;SDS011;5652;48.406;10.820;2023-04-22T00:19:33;2.85;;;1.67;;
11191;SDS011;5652;48.406;10.820;2023-04-22T00:22:01;3.35;;;1.65;;
11191;SDS011;5652;48.406;10.820;2023-04-22T00:24:28;3.38;;;1.60;;
11191;SDS011;5652;48.406;10.820;2023-04-22T00:26:55;2.53;;;1.70;;
11191;SDS011;5652;48.406;10.820;2023-04-22T00:29:23;1.83;;;1.60;;
11191;SDS011;5652;48.406;10.820;2023-04-22T00:31:52;2.00;;;1.50;;
11191;SDS011;5652;48.406;10.820;2023-04-22T00:34:19;4.87;;;1.90;;
11191;SDS011;5652;48.406;10.820;2023-04-22T00:36:46;2.47;;;1.70;;
11191;SDS011;5652;48.406;10.820;2023-04-22T00:39:15;2.92;;;1.80;;
11191;SDS011;5652;48.406;10.820;2023-04-22T00:41:42;5.20;;;1.70;;
11191;SDS011;5652;48.406;10.820;2023-04-22T00:44:09;2.85;;;1.60;;
11191;SDS011;5652;48.406;10.820;2023-04-22T00:46:37;4.85;;;1.60;;
11191;SDS011;5652;48.406;10.820;2023-04-22T00:49:06;3.70;;;1.60;;
11191;SDS011;5652;48.406;10.820;2023-04-22T00:51:33;2.70;;;1.50;;
11191;SDS011;5652;48.406;10.820;2023-04-22T00:54:00;3.00;;;1.63;;
11191;SDS011;5652;48.406;10.820;2023-04-22T00:56:29;1.92;;;1.63;;
11191;SDS011;5652;48.406;10.820;2023-04-22T00:58:57;2.35;;;1.40;;
11191;SDS011;5652;48.406;10.820;2023-04-22T01:01:24;2.60;;;1.60;;
11191;SDS011;5652;48.406;10.820;2023-04-22T01:03:52;3.10;;;1.77;;
11191;SDS011;5652;48.406;10.820;2023-04-22T01:06:21;3.03;;;1.70;;
11191;SDS011;5652;48.406;10.820;2023-04-22T01:08:50;2.00;;;1.60;;
11191;SDS011;5652;48.406;10.820;2023-04-22T01:11:18;2.90;;;1.80;;
11191;SDS011;5652;48.406;10.820;2023-04-22T01:13:45;2.80;;;1.90;;
11191;SDS011;5652;48.406;10.820;2023-04-22T01:16:14;2.15;;;1.80;;
11191;SDS011;5652;48.406;10.820;2023-04-22T01:18:41;3.50;;;1.80;;
11191;SDS011;5652;48.406;10.820;2023-04-22T01:21:08;2.50;;;1.73;;
11191;SDS011;5652;48.406;10.820;2023-04-22T01:23:37;3.80;;;1.83;;
11191;SDS011;5652;48.406;10.820;2023-04-22T01:26:04;2.60;;;1.70;;
11191;SDS011;5652;48.406;10.820;2023-04-22T01:28:31;2.50;;;1.70;;
11191;SDS011;5652;48.406;10.820;2023-04-22T01:30:59;2.50;;;1.70;;
11191;SDS011;5652;48.406;10.820;2023-04-22T01:33:26;3.33;;;1.70;;
11191;SDS011;5652;48.406;10.820;2023-04-22T01:35:53;4.53;;;1.90;;
11191;SDS011;5652;48.406;10.820;2023-04-22T01:38:20;3.60;;;1.80;;
11191;SDS011;5652;48.406;10.820;2023-04-22T01:40:48;3.70;;;1.60;;
11191;SDS011;5652;48.406;10.820;2023-04-22T01:43:16;3.88;;;1.92;;
11191;SDS011;5652;48.406;10.820;2023-04-22T01:45:43;3.55;;;1.83;;
11191;SDS011;5652;48.406;10.820;2023-04-22T01:48:10;10.70;;;2.15;;
11191;SDS011;5652;48.406;10.820;2023-04-22T01:50:37;2.65;;;1.75;;
11191;SDS011;5652;48.406;10.820;2023-04-22T01:53:05;2.53;;;1.60;;
11191;SDS011;5652;48.406;10.820;2023-04-22T01:55:33;1.92;;;1.65;;
11191;SDS011;5652;48.406;10.820;2023-04-22T01:58:02;3.25;;;1.80;;
11191;SDS011;5652;48.406;10.820;2023-04-22T02:00:29;3.28;;;1.80;;
11191;SDS011;5652;48.406;10.820;2023-04-22T02:02:57;2.42;;;1.90;;
11191;SDS011;5652;48.406;10.820;2023-04-22T02:05:24;5.03;;;1.70;;
11191;SDS011;5652;48.406;10.820;2023-04-22T02:07:51;2.22;;;1.70;;
11191;SDS011;5652;48.406;10.820;2023-04-22T02:10:19;1.83;;;1.40;;
11191;SDS011;5652;48.406;10.820;2023-04-22T02:12:46;1.70;;;1.50;;
11191;SDS011;5652;48.406;10.820;2023-04-22T02:15:15;2.80;;;1.90;;
11191;SDS011;5652;48.406;10.820;2023-04-22T02:17:42;5.85;;;1.70;;
11191;SDS011;5652;48.406;10.820;2023-04-22T02:20:10;3.50;;;1.90;;
11191;SDS011;5652;48.406;10.820;2023-04-22T02:22:37;4.37;;;2.00;;
11191;SDS011;5652;48.406;10.820;2023-04-22T02:25:05;3.73;;;1.93;;
11191;SDS011;5652;48.406;10.820;2023-04-22T02:27:33;3.40;;;1.80;;
11191;SDS011;5652;48.406;10.820;2023-04-22T02:30:00;3.30;;;1.90;;
11191;SDS011;5652;48.406;10.820;2023-04-22T02:32:29;3.20;;;1.85;;
11191;SDS011;5652;48.406;10.820;2023-04-22T02:34:56;4.43;;;2.13;;
11191;SDS011;5652;48.406;10.820;2023-04-22T02:37:23;2.28;;;1.85;;
11191;SDS011;5652;48.406;10.820;2023-04-22T02:39:50;3.22;;;2.10;;
11191;SDS011;5652;48.406;10.820;2023-04-22T02:42:17;3.40;;;2.15;;
11191;SDS011;5652;48.406;10.820;2023-04-22T02:44:44;3.42;;;2.38;;
11191;SDS011;5652;48.406;10.820;2023-04-22T02:47:11;4.07;;;2.43;;
11191;SDS011;5652;48.406;10.820;2023-04-22T02:49:40;4.07;;;2.20;;
11191;SDS011;5652;48.406;10.820;2023-04-22T02:52:07;5.35;;;2.40;;
11191;SDS011;5652;48.406;10.820;2023-04-22T02:54:35;4.00;;;2.40;;
11191;SDS011;5652;48.406;10.820;2023-04-22T02:57:02;4.78;;;2.40;;
11191;SDS011;5652;48.406;10.820;2023-04-22T02:59:29;2.80;;;2.20;;
11191;SDS011;5652;48.406;10.820;2023-04-22T03:01:56;3.58;;;2.30;;
11191;SDS011;5652;48.406;10.820;2023-04-22T03:04:24;3.92;;;2.30;;
11191;SDS011;5652;48.406;10.820;2023-04-22T03:06:52;2.65;;;2.03;;
11191;SDS011;5652;48.406;10.820;2023-04-22T03:09:20;4.60;;;2.17;;
11191;SDS011;5652;48.406;10.820;2023-04-22T03:11:47;4.95;;;2.38;;
11191;SDS011;5652;48.406;10.820;2023-04-22T03:14:15;3.35;;;2.30;;
11191;SDS011;5652;48.406;10.820;2023-04-22T03:16:43;3.42;;;2.38;;
11191;SDS011;5652;48.406;10.820;2023-04-22T03:19:11;3.22;;;2.17;;
11191;SDS011;5652;48.406;10.820;2023-04-22T03:21:38;2.78;;;2.20;;
11191;SDS011;5652;48.406;10.820;2023-04-22T03:24:06;3.70;;;2.00;;
11191;SDS011;5652;48.406;10.820;2023-04-22T03:26:33;4.40;;;2.08;;
11191;SDS011;5652;48.406;10.820;2023-04-22T03:29:01;4.72;;;2.38;;
11191;SDS011;5652;48.406;10.820;2023-04-22T03:31:28;4.13;;;2.20;;
11191;SDS011;5652;48.406;10.820;2023-04-22T03:33:55;2.93;;;2.10;;
11191;SDS011;5652;48.406;10.820;2023-04-22T03:36:22;4.28;;;2.10;;
11191;SDS011;5652;48.406;10.820;2023-04-22T03:38:49;3.17;;;1.98;;
11191;SDS011;5652;48.406;10.820;2023-04-22T03:41:17;2.87;;;2.10;;
11191;SDS011;5652;48.406;10.820;2023-04-22T03:43:44;3.75;;;2.30;;
11191;SDS011;5652;48.406;10.820;2023-04-22T03:46:12;3.35;;;2.10;;
11191;SDS011;5652;48.406;10.820;2023-04-22T03:48:39;2.42;;;1.92;;
11191;SDS011;5652;48.406;10.820;2023-04-22T03:51:06;4.32;;;2.20;;
11191;SDS011;5652;48.406;10.820;2023-04-22T03:53:33;3.33;;;2.20;;
11191;SDS011;5652;48.406;10.820;2023-04-22T03:56:00;3.50;;;2.10;;
11191;SDS011;5652;48.406;10.820;2023-04-22T03:58:29;2.83;;;2.20;;
11191;SDS011;5652;48.406;10.820;2023-04-22T04:00:56;3.67;;;2.10;;
11191;SDS011;5652;48.406;10.820;2023-04-22T04:03:23;3.53;;;2.40;;
11191;SDS011;5652;48.406;10.820;2023-04-22T04:05:50;3.22;;;2.13;;
11191;SDS011;5652;48.406;10.820;2023-04-22T04:08:17;2.55;;;2.10;;
11191;SDS011;5652;48.406;10.820;2023-04-22T04:10:44;3.00;;;2.25;;
11191;SDS011;5652;48.406;10.820;2023-04-22T04:13:11;4.70;;;2.60;;
11191;SDS011;5652;48.406;10.820;2023-04-22T04:15:40;3.42;;;2.10;;
11191;SDS011;5652;48.406;10.820;2023-04-22T04:18:07;4.57;;;2.05;;
11191;SDS011;5652;48.406;10.820;2023-04-22T04:20:35;5.85;;;2.60;;
11191;SDS011;5652;48.406;10.820;2023-04-22T04:23:02;3.33;;;2.20;;
11191;SDS011;5652;48.406;10.820;2023-04-22T04:25:30;4.25;;;2.25;;
11191;SDS011;5652;48.406;10.820;2023-04-22T04:28:01;2.70;;;2.00;;
11191;SDS011;5652;48.406;10.820;2023-04-22T04:30:29;4.00;;;2.17;;
11191;SDS011;5652;48.406;10.820;2023-04-22T04:32:58;2.43;;;2.00;;
11191;SDS011;5652;48.406;10.820;2023-04-22T04:35:30;2.90;;;2.05;;
11191;SDS011;5652;48.406;10.820;2023-04-22T04:37:58;3.45;;;2.40;;
11191;SDS011;5652;48.406;10.820;2023-04-22T04:40:25;5.50;;;2.33;;
11191;SDS011;5652;48.406;10.820;2023-04-22T04:42:53;3.55;;;2.22;;
11191;SDS011;5652;48.406;10.820;2023-04-22T04:45:21;3.85;;;2.20;;
11191;SDS011;5652;48.406;10.820;2023-04-22T04:47:48;4.82;;;2.28;;
11191;SDS011;5652;48.406;10.820;2023-04-22T04:50:20;2.15;;;1.77;;
11191;SDS011;5652;48.406;10.820;2023-04-22T04:52:47;5.07;;;2.33;;
11191;SDS011;5652;48.406;10.820;2023-04-22T04:55:15;4.28;;;2.20;;
11191;SDS011;5652;48.406;10.820;2023-04-22T04:57:42;4.60;;;2.37;;
11191;SDS011;5652;48.406;10.820;2023-04-22T05:00:10;2.92;;;2.00;;
11191;SDS011;5652;48.406;10.820;2023-04-22T05:02:38;2.83;;;2.03;;
11191;SDS011;5652;48.406;10.820;2023-04-22T05:05:05;4.05;;;2.35;;
11191;SDS011;5652;48.406;10.820;2023-04-22T05:07:34;3.85;;;2.45;;
11191;SDS011;5652;48.406;10.820;2023-04-22T05:10:01;5.38;;;3.20;;
11191;SDS011;5652;48.406;10.820;2023-04-22T05:12:28;5.75;;;2.95;;
11191;SDS011;5652;48.406;10.820;2023-04-22T05:14:55;4.70;;;2.90;;
11191;SDS011;5652;48.406;10.820;2023-04-22T05:17:22;4.43;;;2.78;;
11191;SDS011;5652;48.406;10.820;2023-04-22T05:19:50;4.63;;;2.97;;
11191;SDS011;5652;48.406;10.820;2023-04-22T05:22:17;4.30;;;2.83;;
11191;SDS011;5652;48.406;10.820;2023-04-22T05:24:45;6.97;;;3.47;;
11191;SDS011;5652;48.406;10.820;2023-04-22T05:27:12;2.95;;;1.95;;
11191;SDS011;5652;48.406;10.820;2023-04-22T05:29:39;3.37;;;2.43;;
11191;SDS011;5652;48.406;10.820;2023-04-22T05:32:07;3.22;;;2.67;;
11191;SDS011;5652;48.406;10.820;2023-04-22T05:34:34;4.80;;;2.60;;
11191;SDS011;5652;48.406;10.820;2023-04-22T05:37:01;6.28;;;2.63;;
11191;SDS011;5652;48.406;10.820;2023-04-22T05:39:29;3.65;;;2.70;;
11191;SDS011;5652;48.406;10.820;2023-04-22T05:41:57;3.83;;;2.60;;
11191;SDS011;5652;48.406;10.820;2023-04-22T05:44:24;3.30;;;2.50;;
11191;SDS011;5652;48.406;10.820;2023-04-22T05:46:52;4.63;;;2.35;;
11191;SDS011;5652;48.406;10.820;2023-04-22T05:49:20;4.70;;;2.75;;
11191;SDS011;5652;48.406;10.820;2023-04-22T05:51:47;4.28;;;2.38;;
11191;SDS011;5652;48.406;10.820;2023-04-22T05:54:14;3.25;;;2.22;;
11191;SDS011;5652;48.406;10.820;2023-04-22T05:56:41;3.20;;;2.13;;
11191;SDS011;5652;48.406;10.820;2023-04-22T05:59:09;3.92;;;2.30;;
11191;SDS011;5652;48.406;10.820;2023-04-22T06:01:36;4.47;;;2.60;;
11191;SDS011;5652;48.406;10.820;2023-04-22T06:04:03;3.35;;;2.40;;
11191;SDS011;5652;48.406;10.820;2023-04-22T06:06:31;3.67;;;2.65;;
11191;SDS011;5652;48.406;10.820;2023-04-22T06:08:58;18.45;;;4.60;;
11191;SDS011;5652;48.406;10.820;2023-04-22T06:11:25;5.07;;;2.80;;
11191;SDS011;5652;48.406;10.820;2023-04-22T06:13:53;4.33;;;2.47;;
11191;SDS011;5652;48.406;10.820;2023-04-22T06:16:21;7.40;;;2.60;;
11191;SDS011;5652;48.406;10.820;2023-04-22T06:18:49;11.10;;;3.13;;
11191;SDS011;5652;48.406;10.820;2023-04-22T06:21:16;6.93;;;2.92;;
11191;SDS011;5652;48.406;10.820;2023-04-22T06:23:44;7.47;;;2.67;;
11191;SDS011;5652;48.406;10.820;2023-04-22T06:26:11;5.88;;;2.92;;
11191;SDS011;5652;48.406;10.820;2023-04-22T06:28:38;5.40;;;2.70;;
11191;SDS011;5652;48.406;10.820;2023-04-22T06:31:05;9.40;;;3.25;;
11191;SDS011;5652;48.406;10.820;2023-04-22T06:33:34;6.82;;;2.63;;
11191;SDS011;5652;48.406;10.820;2023-04-22T06:36:01;5.80;;;2.65;;
11191;SDS011;5652;48.406;10.820;2023-04-22T06:38:29;4.40;;;2.50;;
11191;SDS011;5652;48.406;10.820;2023-04-22T06:40:56;4.63;;;2.55;;
11191;SDS011;5652;48.406;10.820;2023-04-22T06:43:23;3.50;;;2.50;;
11191;SDS011;5652;48.406;10.820;2023-04-22T06:45:50;5.00;;;2.90;;
11191;SDS011;5652;48.406;10.820;2023-04-22T06:48:17;4.77;;;2.90;;
11191;SDS011;5652;48.406;10.820;2023-04-22T06:50:45;4.30;;;3.00;;
11191;SDS011;5652;48.406;10.820;2023-04-22T06:53:13;5.50;;;2.53;;
11191;SDS011;5652;48.406;10.820;2023-04-22T06:55:40;3.87;;;2.60;;
11191;SDS011;5652;48.406;10.820;2023-04-22T06:58:07;3.25;;;2.58;;
11191;SDS011;5652;48.406;10.820;2023-04-22T07:00:34;4.38;;;2.72;;
11191;SDS011;5652;48.406;10.820;2023-04-22T07:03:01;3.08;;;2.30;;
11191;SDS011;5652;48.406;10.820;2023-04-22T07:05:28;4.00;;;2.60;;
11191;SDS011;5652;48.406;10.820;2023-04-22T07:07:57;2.50;;;2.03;;
11191;SDS011;5652;48.406;10.820;2023-04-22T07:10:24;3.38;;;2.20;;
11191;SDS011;5652;48.406;10.820;2023-04-22T07:12:51;2.90;;;2.40;;
11191;SDS011;5652;48.406;10.820;2023-04-22T07:15:18;3.03;;;2.30;;
11191;SDS011;5652;48.406;10.820;2023-04-22T07:17:45;4.30;;;2.45;;
11191;SDS011;5652;48.406;10.820;2023-04-22T07:20:12;2.92;;;2.00;;
11191;SDS011;5652;48.406;10.820;2023-04-22T07:22:40;4.60;;;2.28;;
11191;SDS011;5652;48.406;10.820;2023-04-22T07:25:08;5.20;;;2.17;;
11191;SDS011;5652;48.406;10.820;2023-04-22T07:27:36;3.67;;;2.20;;
11191;SDS011;5652;48.406;10.820;2023-04-22T07:30:04;3.57;;;1.93;;
11191;SDS011;5652;48.406;10.820;2023-04-22T07:32:32;4.07;;;2.10;;
11191;SDS011;5652;48.406;10.820;2023-04-22T07:34:59;4.00;;;1.80;;
11191;SDS011;5652;48.406;10.820;2023-04-22T07:37:26;3.08;;;2.00;;
11191;SDS011;5652;48.406;10.820;2023-04-22T07:39:53;2.60;;;1.92;;
11191;SDS011;5652;48.406;10.820;2023-04-22T07:42:23;3.15;;;2.10;;
11191;SDS011;5652;48.406;10.820;2023-04-22T07:44:50;2.75;;;1.88;;
11191;SDS011;5652;48.406;10.820;2023-04-22T07:47:18;2.37;;;1.90;;
11191;SDS011;5652;48.406;10.820;2023-04-22T07:49:45;5.50;;;2.00;;
11191;SDS011;5652;48.406;10.820;2023-04-22T07:52:13;2.22;;;1.90;;
11191;SDS011;5652;48.406;10.820;2023-04-22T07:54:40;3.83;;;1.90;;
11191;SDS011;5652;48.406;10.820;2023-04-22T07:57:08;2.22;;;1.80;;
11191;SDS011;5652;48.406;10.820;2023-04-22T07:59:37;3.38;;;2.00;;
11191;SDS011;5652;48.406;10.820;2023-04-22T08:02:04;10.05;;;2.63;;
11191;SDS011;5652;48.406;10.820;2023-04-22T08:04:31;6.88;;;2.38;;
11191;SDS011;5652;48.406;10.820;2023-04-22T08:06:58;2.53;;;1.73;;
11191;SDS011;5652;48.406;10.820;2023-04-22T08:09:27;1.93;;;1.73;;
11191;SDS011;5652;48.406;10.820;2023-04-22T08:11:54;2.50;;;1.50;;
11191;SDS011;5652;48.406;10.820;2023-04-22T08:14:22;2.75;;;1.40;;
11191;SDS011;5652;48.406;10.820;2023-04-22T08:16:51;1.50;;;1.30;;
11191;SDS011;5652;48.406;10.820;2023-04-22T08:19:18;1.70;;;1.33;;
11191;SDS011;5652;48.406;10.820;2023-04-22T08:21:45;1.93;;;1.30;;
11191;SDS011;5652;48.406;10.820;2023-04-22T08:24:13;2.30;;;1.50;;
11191;SDS011;5652;48.406;10.820;2023-04-22T08:26:40;1.40;;;1.30;;
11191;SDS011;5652;48.406;10.820;2023-04-22T08:29:07;2.60;;;1.40;;
11191;SDS011;5652;48.406;10.820;2023-04-22T08:31:34;3.28;;;1.25;;
11191;SDS011;5652;48.406;10.820;2023-04-22T08:34:03;2.70;;;1.35;;
11191;SDS011;5652;48.406;10.820;2023-04-22T08:36:30;1.70;;;1.50;;
11191;SDS011;5652;48.406;10.820;2023-04-22T08:38:57;1.50;;;1.33;;
11191;SDS011;5652;48.406;10.820;2023-04-22T08:41:25;2.38;;;1.30;;
11191;SDS011;5652;48.406;10.820;2023-04-22T08:43:52;1.52;;;1.30;;
11191;SDS011;5652;48.406;10.820;2023-04-22T08:46:19;2.20;;;1.30;;
11191;SDS011;5652;48.406;10.820;2023-04-22T08:48:48;3.08;;;1.40;;
11191;SDS011;5652;48.406;10.820;2023-04-22T08:51:16;2.78;;;1.45;;
11191;SDS011;5652;48.406;10.820;2023-04-22T08:53:44;2.10;;;1.40;;
11191;SDS011;5652;48.406;10.820;2023-04-22T08:56:11;1.50;;;1.40;;
11191;SDS011;5652;48.406;10.820;2023-04-22T08:58:38;2.70;;;1.20;;
11191;SDS011;5652;48.406;10.820;2023-04-22T09:01:06;1.52;;;1.38;;
11191;SDS011;5652;48.406;10.820;2023-04-22T09:03:33;1.83;;;1.42;;
11191;SDS011;5652;48.406;10.820;2023-04-22T09:06:01;1.80;;;1.42;;
11191;SDS011;5652;48.406;10.820;2023-04-22T09:08:30;1.52;;;1.35;;
11191;SDS011;5652;48.406;10.820;2023-04-22T09:10:57;2.60;;;1.27;;
11191;SDS011;5652;48.406;10.820;2023-04-22T09:13:25;2.03;;;1.30;;
11191;SDS011;5652;48.406;10.820;2023-04-22T09:15:52;2.80;;;1.55;;
11191;SDS011;5652;48.406;10.820;2023-04-22T09:18:19;2.10;;;1.30;;
11191;SDS011;5652;48.406;10.820;2023-04-22T09:20:47;1.63;;;1.40;;
11191;SDS011;5652;48.406;10.820;2023-04-22T09:23:14;3.20;;;1.50;;
11191;SDS011;5652;48.406;10.820;2023-04-22T09:25:43;1.85;;;1.30;;
11191;SDS011;5652;48.406;10.820;2023-04-22T09:28:11;2.55;;;1.30;;
11191;SDS011;5652;48.406;10.820;2023-04-22T09:30:38;4.10;;;1.60;;
11191;SDS011;5652;48.406;10.820;2023-04-22T09:33:06;2.55;;;1.50;;
11191;SDS011;5652;48.406;10.820;2023-04-22T09:35:34;4.30;;;1.40;;
11191;SDS011;5652;48.406;10.820;2023-04-22T09:38:02;1.70;;;1.40;;
11191;SDS011;5652;48.406;10.820;2023-04-22T09:40:30;1.92;;;1.30;;
11191;SDS011;5652;48.406;10.820;2023-04-22T09:43:01;2.10;;;1.60;;
11191;SDS011;5652;48.406;10.820;2023-04-22T09:45:29;3.00;;;1.40;;
11191;SDS011;5652;48.406;10.820;2023-04-22T09:47:58;1.60;;;1.30;;
11191;SDS011;5652;48.406;10.820;2023-04-22T09:50:26;3.50;;;1.40;;
11191;SDS011;5652;48.406;10.820;2023-04-22T09:52:54;1.55;;;1.40;;
11191;SDS011;5652;48.406;10.820;2023-04-22T09:55:22;1.50;;;1.30;;
11191;SDS011;5652;48.406;10.820;2023-04-22T09:57:52;2.08;;;1.40;;
11191;SDS011;5652;48.406;10.820;2023-04-22T10:00:25;1.77;;;1.40;;
11191;SDS011;5652;48.406;10.820;2023-04-22T10:02:53;2.45;;;1.40;;
11191;SDS011;5652;48.406;10.820;2023-04-22T10:05:20;2.67;;;1.33;;
11191;SDS011;5652;48.406;10.820;2023-04-22T10:07:49;2.80;;;1.45;;
11191;SDS011;5652;48.406;10.820;2023-04-22T10:10:16;2.42;;;1.40;;
11191;SDS011;5652;48.406;10.820;2023-04-22T10:12:44;1.38;;;1.20;;
11191;SDS011;5652;48.406;10.820;2023-04-22T10:15:13;2.30;;;1.50;;
11191;SDS011;5652;48.406;10.820;2023-04-22T10:17:42;2.15;;;1.40;;
11191;SDS011;5652;48.406;10.820;2023-04-22T10:20:11;1.70;;;1.30;;
11191;SDS011;5652;48.406;10.820;2023-04-22T10:22:39;3.05;;;1.40;;
11191;SDS011;5652;48.406;10.820;2023-04-22T10:25:11;1.63;;;1.40;;
11191;SDS011;5652;48.406;10.820;2023-04-22T10:27:38;1.92;;;1.50;;
11191;SDS011;5652;48.406;10.820;2023-04-22T10:30:07;2.17;;;1.50;;
11191;SDS011;5652;48.406;10.820;2023-04-22T10:32:34;2.38;;;1.30;;
11191;SDS011;5652;48.406;10.820;2023-04-22T10:35:13;1.60;;;1.40;;
11191;SDS011;5652;48.406;10.820;2023-04-22T10:37:41;1.50;;;1.20;;
11191;SDS011;5652;48.406;10.820;2023-04-22T10:40:10;4.20;;;1.50;;
11191;SDS011;5652;48.406;10.820;2023-04-22T10:42:40;3.40;;;1.48;;
11191;SDS011;5652;48.406;10.820;2023-04-22T10:45:11;1.95;;;1.50;;
11191;SDS011;5652;48.406;10.820;2023-04-22T10:47:39;1.85;;;1.60;;
11191;SDS011;5652;48.406;10.820;2023-04-22T10:50:10;2.20;;;1.55;;
11191;SDS011;5652;48.406;10.820;2023-04-22T10:52:39;2.55;;;1.50;;
11191;SDS011;5652;48.406;10.820;2023-04-22T10:55:07;1.75;;;1.30;;
11191;SDS011;5652;48.406;10.820;2023-04-22T10:57:38;2.37;;;1.53;;
11191;SDS011;5652;48.406;10.820;2023-04-22T11:03:07;2.22;;;1.40;;
11191;SDS011;5652;48.406;10.820;2023-04-22T11:05:34;2.45;;;1.30;;
11191;SDS011;5652;48.406;10.820;2023-04-22T11:08:04;1.90;;;1.45;;
11191;SDS011;5652;48.406;10.820;2023-04-22T11:10:32;1.90;;;1.30;;
11191;SDS011;5652;48.406;10.820;2023-04-22T11:13:01;3.05;;;1.50;;
11191;SDS011;5652;48.406;10.820;2023-04-22T11:15:31;2.13;;;1.35;;
11191;SDS011;5652;48.406;10.820;2023-04-22T11:17:58;2.33;;;1.50;;
11191;SDS011;5652;48.406;10.820;2023-04-22T11:20:26;2.10;;;1.63;;
11191;SDS011;5652;48.406;10.820;2023-04-22T11:22:55;1.92;;;1.70;;
11191;SDS011;5652;48.406;10.820;2023-04-22T11:25:24;2.50;;;1.80;;
11191;SDS011;5652;48.406;10.820;2023-04-22T11:27:52;2.50;;;1.52;;
11191;SDS011;5652;48.406;10.820;2023-04-22T11:30:20;2.73;;;1.60;;
11191;SDS011;5652;48.406;10.820;2023-04-22T11:32:48;5.13;;;1.73;;
11191;SDS011;5652;48.406;10.820;2023-04-22T11:35:17;2.55;;;1.63;;
11191;SDS011;5652;48.406;10.820;2023-04-22T11:37:45;2.05;;;1.73;;
11191;SDS011;5652;48.406;10.820;2023-04-22T11:40:15;2.80;;;1.50;;
11191;SDS011;5652;48.406;10.820;2023-04-22T11:42:44;2.00;;;1.48;;
11191;SDS011;5652;48.406;10.820;2023-04-22T11:45:11;2.90;;;1.40;;
11191;SDS011;5652;48.406;10.820;2023-04-22T11:47:39;2.30;;;1.33;;
11191;SDS011;5652;48.406;10.820;2023-04-22T11:50:09;2.45;;;1.23;;
11191;SDS011;5652;48.406;10.820;2023-04-22T11:52:49;1.20;;;1.10;;
11191;SDS011;5652;48.406;10.820;2023-04-22T11:55:20;1.40;;;1.10;;
11191;SDS011;5652;48.406;10.820;2023-04-22T11:57:55;2.95;;;1.20;;
11191;SDS011;5652;48.406;10.820;2023-04-22T12:00:23;1.25;;;1.15;;
11191;SDS011;5652;48.406;10.820;2023-04-22T12:02:53;1.17;;;1.08;;
11191;SDS011;5652;48.406;10.820;2023-04-22T12:05:21;1.60;;;1.20;;
11191;SDS011;5652;48.406;10.820;2023-04-22T12:07:58;2.50;;;1.20;;
11191;SDS011;5652;48.406;10.820;2023-04-22T12:10:26;1.60;;;1.30;;
11191;SDS011;5652;48.406;10.820;2023-04-22T12:12:54;2.80;;;1.30;;
11191;SDS011;5652;48.406;10.820;2023-04-22T12:15:22;1.30;;;1.20;;
11191;SDS011;5652;48.406;10.820;2023-04-22T12:17:49;1.40;;;1.30;;
11191;SDS011;5652;48.406;10.820;2023-04-22T12:20:16;1.90;;;1.40;;
11191;SDS011;5652;48.406;10.820;2023-04-22T12:22:44;1.50;;;1.33;;
11191;SDS011;5652;48.406;10.820;2023-04-22T12:25:16;1.50;;;1.40;;
11191;SDS011;5652;48.406;10.820;2023-04-22T12:27:43;1.40;;;1.30;;
11191;SDS011;5652;48.406;10.820;2023-04-22T12:30:12;1.83;;;1.40;;
11191;SDS011;5652;48.406;10.820;2023-04-22T12:32:40;1.30;;;1.20;;
11191;SDS011;5652;48.406;10.820;2023-04-22T12:35:07;1.60;;;1.30;;
11191;SDS011;5652;48.406;10.820;2023-04-22T12:37:34;2.72;;;1.30;;
11191;SDS011;5652;48.406;10.820;2023-04-22T12:40:02;1.85;;;1.45;;
11191;SDS011;5652;48.406;10.820;2023-04-22T12:42:30;1.67;;;1.30;;
11191;SDS011;5652;48.406;10.820;2023-04-22T12:44:58;1.20;;;1.10;;
11191;SDS011;5652;48.406;10.820;2023-04-22T12:47:26;1.45;;;1.10;;
11191;SDS011;5652;48.406;10.820;2023-04-22T12:49:54;2.72;;;1.38;;
11191;SDS011;5652;48.406;10.820;2023-04-22T12:52:22;1.30;;;1.20;;
11191;SDS011;5652;48.406;10.820;2023-04-22T12:54:49;3.17;;;1.20;;
11191;SDS011;5652;48.406;10.820;2023-04-22T12:57:17;1.50;;;1.23;;
11191;SDS011;5652;48.406;10.820;2023-04-22T12:59:44;1.90;;;1.30;;
11191;SDS011;5652;48.406;10.820;2023-04-22T13:02:11;1.30;;;1.20;;
11191;SDS011;5652;48.406;10.820;2023-04-22T13:04:40;2.23;;;1.40;;
11191;SDS011;5652;48.406;10.820;2023-04-22T13:07:07;1.50;;;1.17;;
11191;SDS011;5652;48.406;10.820;2023-04-22T13:09:34;2.05;;;1.30;;
11191;SDS011;5652;48.406;10.820;2023-04-22T13:12:01;3.03;;;1.60;;
11191;SDS011;5652;48.406;10.820;2023-04-22T13:14:28;1.75;;;1.35;;
11191;SDS011;5652;48.406;10.820;2023-04-22T13:16:56;1.65;;;1.20;;
11191;SDS011;5652;48.406;10.820;2023-04-22T13:19:23;1.30;;;1.20;;
11191;SDS011;5652;48.406;10.820;2023-04-22T13:21:52;3.55;;;1.40;;
11191;SDS011;5652;48.406;10.820;2023-04-22T13:24:19;1.65;;;1.30;;
11191;SDS011;5652;48.406;10.820;2023-04-22T13:26:46;1.50;;;1.27;;
11191;SDS011;5652;48.406;10.820;2023-04-22T13:29:13;1.73;;;1.40;;
11191;SDS011;5652;48.406;10.820;2023-04-22T13:31:41;2.80;;;1.23;;
11191;SDS011;5652;48.406;10.820;2023-04-22T13:34:09;2.88;;;1.40;;
11191;SDS011;5652;48.406;10.820;2023-04-22T13:36:36;2.45;;;1.20;;
11191;SDS011;5652;48.406;10.820;2023-04-22T13:39:04;2.10;;;1.20;;
11191;SDS011;5652;48.406;10.820;2023-04-22T13:41:33;1.95;;;1.42;;
11191;SDS011;5652;48.406;10.820;2023-04-22T13:44:00;1.60;;;1.30;;
11191;SDS011;5652;48.406;10.820;2023-04-22T13:46:28;1.67;;;1.38;;
11191;SDS011;5652;48.406;10.820;2023-04-22T13:48:55;1.98;;;1.30;;
11191;SDS011;5652;48.406;10.820;2023-04-22T13:51:23;1.27;;;1.10;;
11191;SDS011;5652;48.406;10.820;2023-04-22T13:53:50;2.95;;;1.40;;
11191;SDS011;5652;48.406;10.820;2023-04-22T13:56:18;1.30;;;1.17;;
11191;SDS011;5652;48.406;10.820;2023-04-22T14:01:49;1.80;;;1.20;;
11191;SDS011;5652;48.406;10.820;2023-04-22T14:04:16;1.30;;;1.20;;
11191;SDS011;5652;48.406;10.820;2023-04-22T14:06:43;1.48;;;1.20;;
11191;SDS011;5652;48.406;10.820;2023-04-22T14:09:11;1.85;;;1.20;;
11191;SDS011;5652;48.406;10.820;2023-04-22T14:11:39;1.17;;;1.03;;
11191;SDS011;5652;48.406;10.820;2023-04-22T14:14:06;2.08;;;1.20;;
11191;SDS011;5652;48.406;10.820;2023-04-22T14:16:33;2.63;;;1.10;;
11191;SDS011;5652;48.406;10.820;2023-04-22T14:19:01;2.03;;;1.15;;
11191;SDS011;5652;48.406;10.820;2023-04-22T14:21:30;1.77;;;1.17;;
11191;SDS011;5652;48.406;10.820;2023-04-22T14:23:57;1.75;;;1.25;;
11191;SDS011;5652;48.406;10.820;2023-04-22T14:26:24;1.75;;;1.20;;
11191;SDS011;5652;48.406;10.820;2023-04-22T14:28:52;1.88;;;1.50;;
11191;SDS011;5652;48.406;10.820;2023-04-22T14:31:19;3.38;;;1.30;;
11191;SDS011;5652;48.406;10.820;2023-04-22T14:33:48;4.53;;;1.30;;
11191;SDS011;5652;48.406;10.820;2023-04-22T14:36:16;3.33;;;1.20;;
11191;SDS011;5652;48.406;10.820;2023-04-22T14:38:43;2.80;;;1.30;;
11191;SDS011;5652;48.406;10.820;2023-04-22T14:41:10;2.88;;;1.20;;
11191;SDS011;5652;48.406;10.820;2023-04-22T14:43:37;2.65;;;1.23;;
11191;SDS011;5652;48.406;10.820;2023-04-22T14:46:06;2.40;;;1.30;;
11191;SDS011;5652;48.406;10.820;2023-04-22T14:51:25;2.85;;;1.30;;
11191;SDS011;5652;48.406;10.820;2023-04-22T14:53:53;2.67;;;1.30;;
11191;SDS011;5652;48.406;10.820;2023-04-22T14:56:20;4.65;;;1.30;;
11191;SDS011;5652;48.406;10.820;2023-04-22T14:58:48;2.00;;;1.20;;
11191;SDS011;5652;48.406;10.820;2023-04-22T15:01:16;1.57;;;1.20;;